Latest Coastal Weather Observations for Inner Beacon

IDQ60701

Issued at 5:22 pm EST Wednesday 8 February 2023 (issued every 10 minutes, with the page automatically refreshed every 10 minutes)

About coastal observations | Map of coastal stations | Coastal observations for QLD | Marine services | Other Formats
Station Details ID: 040926 Name: INNER RECIPROCAL MARKER Lat: -27.26 Lon: 153.24 Height: 10.0 m
Data from the previous 72 hours. | See also: Recent months at Inner Beacon
Date/Time
EST
Wind Sea
Height
m
Swell Vis
km
Cloud Weather Temp
°C
Press
MSL
hPa
Rain since
9am
mm
Dir  Spd
kts
Gust
kts
Height
m
Period
s
Dir
08/05:00pm ESE 17 21 - - - - - - - - - -
08/04:30pm SE 15 20 - - - - - - - - - -
08/04:00pm SE 15 20 - - - - - - - - - -
08/03:30pm SE 14 17 - - - - - - - - - -
08/03:00pm SE 16 19 - - - - - - - - - -
08/02:30pm SE 14 18 - - - - - - - - - -
08/02:00pm ESE 14 18 - - - - - - - - - -
08/01:30pm SE 11 17 - - - - - - - - - -
08/01:00pm SE 12 15 - - - - - - - - - -
08/12:30pm SE 12 15 - - - - - - - - - -
08/12:00pm SE 12 15 - - - - - - - - - -
08/11:30am SE 12 16 - - - - - - - - - -
08/11:00am ESE 12 15 - - - - - - - - - -
08/10:30am ESE 13 17 - - - - - - - - - -
08/10:00am ESE 14 17 - - - - - - - - - -
08/09:30am ESE 15 18 - - - - - - - - - -
08/09:00am ESE 12 15 - - - - - - - - - -
08/08:30am ESE 14 17 - - - - - - - - - -
08/08:00am SE 15 20 - - - - - - - - - -
08/07:30am SE 16 19 - - - - - - - - - -
08/07:00am ESE 14 19 - - - - - - - - - -
08/06:30am ESE 14 18 - - - - - - - - - -
08/06:00am SE 15 19 - - - - - - - - - -
08/05:30am ESE 16 19 - - - - - - - - - -
08/05:00am SE 15 19 - - - - - - - - - -
08/04:30am SE 15 19 - - - - - - - - - -
08/04:00am ESE 15 20 - - - - - - - - - -
08/03:30am ESE 15 19 - - - - - - - - - -
08/03:00am ESE 15 19 - - - - - - - - - -
08/02:30am SE 13 18 - - - - - - - - - -
08/02:00am ESE 13 17 - - - - - - - - - -
08/01:30am ESE 12 17 - - - - - - - - - -
08/01:00am ESE 12 15 - - - - - - - - - -
08/12:30am ESE 11 15 - - - - - - - - - -
08/12:00am ESE 11 15 - - - - - - - - - -
 
Date/Time
EST
Wind Sea
Height
m
Swell Vis
km
Cloud Weather Temp
°C
Press
MSL
hPa
Rain since
9am
mm
Dir  Spd
kts
Gust
kts
Height
m
Period
s
Dir
07/11:30pm ESE 10 14 - - - - - - - - - -
07/11:00pm ESE 12 16 - - - - - - - - - -
07/10:30pm SE 11 15 - - - - - - - - - -
07/10:00pm ESE 12 14 - - - - - - - - - -
07/09:30pm ESE 13 18 - - - - - - - - - -
07/09:00pm ESE 13 17 - - - - - - - - - -
07/08:30pm ESE 14 17 - - - - - - - - - -
07/08:00pm ESE 14 18 - - - - - - - - - -
07/07:30pm ESE 15 19 - - - - - - - - - -
07/07:00pm ESE 15 18 - - - - - - - - - -
07/06:30pm ESE 15 18 - - - - - - - - - -
07/06:00pm ESE 15 19 - - - - - - - - - -
07/05:30pm E 15 18 - - - - - - - - - -
07/05:00pm E 17 20 - - - - - - - - - -
07/04:30pm E 13 16 - - - - - - - - - -
07/04:00pm E 13 17 - - - - - - - - - -
07/03:30pm E 13 15 - - - - - - - - - -
07/03:00pm ESE 14 19 - - - - - - - - - -
07/02:30pm ESE 12 16 - - - - - - - - - -
07/02:00pm ESE 12 15 - - - - - - - - - -
07/01:30pm SE 11 15 - - - - - - - - - -
07/01:00pm SE 12 15 - - - - - - - - - -
07/12:30pm ESE 13 18 - - - - - - - - - -
07/12:00pm E 12 16 - - - - - - - - - -
07/11:30am E 11 14 - - - - - - - - - -
07/11:00am ESE 13 16 - - - - - - - - - -
07/10:30am ESE 10 14 - - - - - - - - - -
07/10:00am ESE 11 15 - - - - - - - - - -
07/09:30am ESE 10 13 - - - - - - - - - -
07/09:00am SE 9 13 - - - - - - - - - -
07/08:30am SE 11 15 - - - - - - - - - -
07/08:00am ESE 11 14 - - - - - - - - - -
07/07:30am ESE 13 17 - - - - - - - - - -
07/07:00am ESE 12 15 - - - - - - - - - -
07/06:30am ESE 13 17 - - - - - - - - - -
07/06:00am ESE 12 15 - - - - - - - - - -
07/05:30am ESE 12 16 - - - - - - - - - -
07/05:00am SE 12 15 - - - - - - - - - -
07/04:30am SE 12 15 - - - - - - - - - -
07/04:00am ESE 12 16 - - - - - - - - - -
07/03:30am SE 12 15 - - - - - - - - - -
07/03:00am SE 11 14 - - - - - - - - - -
07/02:30am SE 10 13 - - - - - - - - - -
07/02:00am SE 12 15 - - - - - - - - - -
07/01:30am SE 11 14 - - - - - - - - - -
07/01:00am ESE 13 15 - - - - - - - - - -
07/12:30am ESE 11 14 - - - - - - - - - -
07/12:00am ESE 11 15 - - - - - - - - - -
 
Date/Time
EST
Wind Sea
Height
m
Swell Vis
km
Cloud Weather Temp
°C
Press
MSL
hPa
Rain since
9am
mm
Dir  Spd
kts
Gust
kts
Height
m
Period
s
Dir
06/11:30pm ESE 12 17 - - - - - - - - - -
06/11:00pm ESE 11 14 - - - - - - - - - -
06/10:30pm ESE 13 17 - - - - - - - - - -
06/10:00pm ESE 12 16 - - - - - - - - - -
06/09:30pm ESE 12 16 - - - - - - - - - -
06/09:00pm ESE 13 16 - - - - - - - - - -
06/08:30pm ESE 13 18 - - - - - - - - - -
06/08:00pm ESE 14 18 - - - - - - - - - -
06/07:30pm ESE 14 18 - - - - - - - - - -
06/07:00pm E 14 17 - - - - - - - - - -
06/06:30pm ESE 14 18 - - - - - - - - - -
06/06:00pm E 14 19 - - - - - - - - - -
06/05:30pm ESE 17 21 - - - - - - - - - -
06/05:00pm ESE 17 22 - - - - - - - - - -
06/04:30pm ESE 16 21 - - - - - - - - - -
06/04:00pm E 16 20 - - - - - - - - - -
06/03:30pm E 15 19 - - - - - - - - - -
06/03:00pm E 14 18 - - - - - - - - - -
06/02:30pm E 13 17 - - - - - - - - - -
06/02:00pm E 12 16 - - - - - - - - - -
06/01:30pm E 13 17 - - - - - - - - - -
06/01:00pm E 14 17 - - - - - - - - - -
06/12:30pm E 14 17 - - - - - - - - - -
06/12:00pm ESE 15 19 - - - - - - - - - -
06/11:30am ESE 15 18 - - - - - - - - - -
06/11:00am SE 14 18 - - - - - - - - - -
06/10:30am SE 14 17 - - - - - - - - - -
06/10:00am SE 15 19 - - - - - - - - - -
06/09:30am SE 14 19 - - - - - - - - - -
06/09:00am SE 15 18 - - - - - - - - - -
06/08:30am SE 14 18 - - - - - - - - - -
06/08:00am SSE 12 15 - - - - - - - - - -
06/07:30am SE 12 16 - - - - - - - - - -
06/07:00am SSE 14 18 - - - - - - - - - -
06/06:30am SSE 14 17 - - - - - - - - - -
06/06:00am SSE 13 15 - - - - - - - - - -
06/05:30am SSE 12 14 - - - - - - - - - -
06/05:00am SSE 12 15 - - - - - - - - - -
06/04:30am SE 14 16 - - - - - - - - - -
06/04:00am SE 12 15 - - - - - - - - - -
06/03:30am SE 12 15 - - - - - - - - - -
06/03:00am SE 12 15 - - - - - - - - - -
06/02:30am SE 12 16 - - - - - - - - - -
06/02:00am SE 12 16 - - - - - - - - - -
06/01:30am SE 12 16 - - - - - - - - - -
06/01:00am SE 13 16 - - - - - - - - - -
06/12:30am ESE 12 15 - - - - - - - - - -
06/12:00am ESE 14 17 - - - - - - - - - -
 
Date/Time
EST
Wind Sea
Height
m
Swell Vis
km
Cloud Weather Temp
°C
Press
MSL
hPa
Rain since
9am
mm
Dir  Spd
kts
Gust
kts
Height
m
Period
s
Dir
05/11:30pm ESE 14 17 - - - - - - - - - -
05/11:00pm ESE 16 19 - - - - - - - - - -
05/10:30pm ESE 13 17 - - - - - - - - - -
05/10:00pm E 15 18 - - - - - - - - - -
05/09:30pm E 15 19 - - - - - - - - - -
05/09:00pm ESE 16 21 - - - - - - - - - -
05/08:30pm ESE 18 22 - - - - - - - - - -
05/08:00pm ESE 18 21 - - - - - - - - - -
05/07:30pm ESE 18 23 - - - - - - - - - -
05/07:00pm ESE 18 21 - - - - - - - - - -
05/06:30pm ESE 19 23 - - - - - - - - - -
05/06:00pm ESE 19 23 - - - - - - - - - -
05/05:30pm ESE 19 22 - - - - - - - - - -

Other formats

Comma delimited format used in spreadsheet applications
http://www.bom.gov.au/fwo/IDQ60701/IDQ60701.94590.axf

JavaScript Object Notation format (JSON) in row-major order
http://www.bom.gov.au/fwo/IDQ60701/IDQ60701.94590.json

Data quality

Most of these data are generated automatically and are frequently updated. Quality checks on data are not normally performed. It is possible for incorrect values to appear. Refer to information at About Latest Weather Observations and please check the disclaimer before using these data.